createdAt,value
2023-03-29T00:01:56.900Z,1.65
2023-03-29T00:04:27.898Z,2.13
2023-03-29T00:07:04.883Z,2.03
2023-03-29T00:09:36.052Z,2.03
2023-03-29T00:12:07.400Z,2.17
2023-03-29T00:14:40.098Z,2.53
2023-03-29T00:17:13.502Z,2.90
2023-03-29T00:19:46.840Z,2.60
2023-03-29T00:22:20.197Z,2.10
2023-03-29T00:24:50.843Z,2.22
2023-03-29T00:27:21.101Z,1.90
2023-03-29T00:29:54.403Z,1.97
2023-03-29T00:32:24.778Z,2.20
2023-03-29T00:34:56.965Z,1.98
2023-03-29T00:37:37.121Z,2.03
2023-03-29T00:40:12.436Z,2.35
2023-03-29T00:42:48.096Z,2.10
2023-03-29T00:45:23.496Z,1.98
2023-03-29T00:47:57.411Z,1.65
2023-03-29T00:50:32.663Z,1.77
2023-03-29T00:53:10.421Z,1.80
2023-03-29T00:55:45.311Z,1.58
2023-03-29T00:58:20.298Z,2.17
2023-03-29T01:01:02.644Z,1.70
2023-03-29T01:03:38.372Z,1.90
2023-03-29T01:06:11.701Z,1.83
2023-03-29T01:08:51.149Z,1.57
2023-03-29T01:11:27.613Z,1.83
2023-03-29T01:14:02.850Z,1.63
2023-03-29T01:16:34.949Z,1.60
2023-03-29T01:19:05.630Z,1.70
2023-03-29T01:21:42.888Z,1.50
2023-03-29T01:24:42.840Z,1.50
2023-03-29T01:27:22.988Z,1.83
2023-03-29T01:30:00.510Z,1.60
2023-03-29T01:32:37.895Z,1.52
2023-03-29T01:35:16.646Z,1.90
2023-03-29T01:37:50.913Z,1.77
2023-03-29T01:40:21.325Z,1.48
2023-03-29T01:42:59.187Z,1.40
2023-03-29T01:45:41.914Z,1.67
2023-03-29T01:48:17.739Z,1.50
2023-03-29T01:50:54.412Z,1.67
2023-03-29T01:53:31.802Z,1.27
2023-03-29T01:56:09.281Z,1.80
2023-03-29T01:58:44.935Z,1.80
2023-03-29T02:01:22.027Z,2.08
2023-03-29T02:03:55.902Z,1.40
2023-03-29T02:06:30.449Z,2.00
2023-03-29T02:09:05.072Z,1.75
2023-03-29T02:11:37.974Z,1.60
2023-03-29T02:14:08.214Z,1.40
2023-03-29T02:16:42.688Z,1.65
2023-03-29T02:19:17.350Z,1.58
2023-03-29T02:21:53.620Z,1.73
2023-03-29T02:24:27.672Z,1.83
2023-03-29T02:29:30.601Z,1.50
2023-03-29T02:32:13.092Z,1.52
2023-03-29T02:34:47.934Z,1.77
2023-03-29T02:37:22.032Z,1.70
2023-03-29T02:39:54.105Z,1.60
2023-03-29T02:42:29.059Z,2.08
2023-03-29T02:45:02.819Z,2.25
2023-03-29T02:47:41.605Z,2.97
2023-03-29T02:50:12.701Z,2.83
2023-03-29T02:52:48.753Z,2.70
2023-03-29T02:55:21.509Z,2.30
2023-03-29T02:57:54.523Z,2.53
2023-03-29T03:00:25.179Z,2.80
2023-03-29T03:02:59.334Z,2.50
2023-03-29T03:05:31.843Z,2.60
2023-03-29T03:08:11.319Z,2.25
2023-03-29T03:10:41.940Z,3.00
2023-03-29T03:13:12.935Z,2.67
2023-03-29T03:15:43.353Z,2.90
2023-03-29T03:18:16.926Z,2.63
2023-03-29T03:20:58.259Z,2.97
2023-03-29T03:23:29.134Z,2.83
2023-03-29T03:26:01.487Z,2.83
2023-03-29T03:28:32.623Z,4.13
2023-03-29T03:31:02.994Z,3.33
2023-03-29T03:33:37.161Z,3.55
2023-03-29T03:38:38.305Z,3.22
2023-03-29T03:41:10.077Z,3.25
2023-03-29T03:43:41.767Z,2.47
2023-03-29T03:46:12.124Z,2.78
2023-03-29T03:48:45.069Z,3.03
2023-03-29T03:51:15.904Z,3.53
2023-03-29T03:53:46.146Z,2.95
2023-03-29T03:56:17.593Z,4.20
2023-03-29T03:58:47.917Z,5.10
2023-03-29T04:01:27.467Z,3.67
2023-03-29T04:04:00.652Z,2.67
2023-03-29T04:06:31.696Z,2.85
2023-03-29T04:09:02.003Z,3.20
2023-03-29T04:11:38.862Z,2.30
2023-03-29T04:14:14.739Z,2.45
2023-03-29T04:16:44.994Z,2.58
2023-03-29T04:19:19.655Z,2.58
2023-03-29T04:21:51.510Z,2.88
2023-03-29T04:24:22.002Z,3.35
2023-03-29T04:26:52.240Z,3.20
2023-03-29T04:29:22.477Z,3.15
2023-03-29T04:31:52.978Z,3.30
2023-03-29T04:34:25.974Z,2.85
2023-03-29T04:36:56.831Z,2.20
2023-03-29T04:39:32.778Z,1.65
2023-03-29T04:42:03.769Z,2.17
2023-03-29T04:44:34.415Z,3.08
2023-03-29T04:47:04.773Z,2.67
2023-03-29T04:49:37.753Z,2.78
2023-03-29T04:52:08.242Z,2.80
2023-03-29T04:54:39.023Z,3.35
2023-03-29T04:57:10.700Z,3.70
2023-03-29T04:59:40.978Z,3.72
2023-03-29T05:02:13.508Z,3.25
2023-03-29T05:04:46.508Z,2.80
2023-03-29T05:07:18.342Z,2.85
2023-03-29T05:09:48.857Z,1.67
2023-03-29T05:12:22.579Z,2.83
2023-03-29T05:14:52.863Z,2.58
2023-03-29T05:17:23.313Z,2.75
2023-03-29T05:19:56.519Z,2.50
2023-03-29T05:22:27.118Z,3.13
2023-03-29T05:24:57.736Z,3.38
2023-03-29T05:27:28.103Z,4.97
2023-03-29T05:29:58.414Z,3.28
2023-03-29T05:32:29.229Z,3.47
2023-03-29T05:35:02.162Z,4.28
2023-03-29T05:37:34.743Z,3.53
2023-03-29T05:40:10.493Z,4.05
2023-03-29T05:42:42.955Z,3.22
2023-03-29T05:45:14.384Z,2.90
2023-03-29T05:47:44.784Z,3.78
2023-03-29T05:50:17.830Z,3.33
2023-03-29T05:52:55.281Z,2.30
2023-03-29T05:55:27.560Z,3.58
2023-03-29T05:57:57.958Z,3.97
2023-03-29T06:00:30.325Z,3.90
2023-03-29T06:03:10.185Z,3.35
2023-03-29T06:05:51.932Z,4.03
2023-03-29T06:08:22.567Z,4.40
2023-03-29T06:10:53.088Z,3.78
2023-03-29T06:13:23.684Z,2.90
2023-03-29T06:15:53.943Z,3.40
2023-03-29T06:18:24.855Z,3.78
2023-03-29T06:20:58.949Z,3.53
2023-03-29T06:23:33.427Z,5.50
2023-03-29T06:26:03.828Z,7.10
2023-03-29T06:28:34.061Z,4.93
2023-03-29T06:31:05.507Z,5.47
2023-03-29T06:33:37.936Z,4.90
2023-03-29T06:36:11.890Z,5.00
2023-03-29T06:41:15.166Z,6.80
2023-03-29T06:43:45.363Z,6.53
2023-03-29T06:46:17.235Z,8.00
2023-03-29T06:48:48.519Z,6.75
2023-03-29T06:51:23.293Z,5.60
2023-03-29T06:53:53.790Z,5.15
2023-03-29T06:56:24.079Z,4.05
2023-03-29T06:58:54.521Z,3.58
2023-03-29T07:01:24.805Z,3.72
2023-03-29T07:03:57.598Z,2.90
2023-03-29T07:06:30.540Z,2.63
2023-03-29T07:09:07.165Z,3.17
2023-03-29T07:14:08.286Z,2.20
2023-03-29T07:16:39.308Z,1.65
2023-03-29T07:19:09.736Z,2.67
2023-03-29T07:21:43.400Z,2.63
2023-03-29T07:27:00.095Z,2.20
2023-03-29T07:29:33.899Z,2.58
2023-03-29T07:32:04.589Z,2.45
2023-03-29T07:34:37.193Z,2.10
2023-03-29T07:37:10.224Z,2.03
2023-03-29T07:39:40.590Z,3.47
2023-03-29T07:42:13.235Z,2.20
2023-03-29T07:44:43.814Z,2.58
2023-03-29T07:47:14.059Z,2.13
2023-03-29T07:49:45.728Z,2.08
2023-03-29T07:52:18.549Z,2.10
2023-03-29T07:54:48.834Z,1.90
2023-03-29T07:57:19.183Z,2.88
2023-03-29T07:59:49.601Z,2.00
2023-03-29T08:02:19.829Z,2.47
2023-03-29T08:04:50.398Z,2.28
2023-03-29T08:07:24.279Z,2.10
2023-03-29T08:09:54.526Z,3.85
2023-03-29T08:12:25.170Z,3.58
2023-03-29T08:14:55.516Z,2.15
2023-03-29T08:17:25.877Z,3.40
2023-03-29T08:19:56.315Z,3.03
2023-03-29T08:22:29.166Z,3.10
2023-03-29T08:24:59.365Z,2.15
2023-03-29T08:27:29.929Z,3.28
2023-03-29T08:30:03.273Z,2.50
2023-03-29T08:32:36.163Z,2.10
2023-03-29T08:35:09.860Z,2.78
2023-03-29T08:37:44.206Z,2.03
2023-03-29T08:40:23.136Z,2.65
2023-03-29T08:43:08.486Z,15.60
2023-03-29T08:45:55.000Z,22.70
2023-03-29T08:48:32.248Z,5.28
2023-03-29T08:51:09.330Z,3.13
2023-03-29T08:53:49.965Z,2.30
2023-03-29T08:56:25.191Z,3.38
2023-03-29T08:58:57.363Z,3.03
2023-03-29T09:01:35.287Z,2.25
2023-03-29T09:04:09.992Z,1.50
2023-03-29T09:06:43.256Z,2.13
2023-03-29T09:09:20.049Z,2.10
2023-03-29T09:12:07.092Z,2.30
2023-03-29T09:14:49.445Z,1.77
2023-03-29T09:17:32.614Z,2.45
2023-03-29T09:20:11.523Z,2.50
2023-03-29T09:22:51.045Z,2.38
2023-03-29T09:25:36.309Z,2.38
2023-03-29T09:28:22.553Z,2.28
2023-03-29T09:30:57.400Z,2.47
2023-03-29T09:33:30.061Z,2.78
2023-03-29T09:36:05.414Z,2.72
2023-03-29T09:38:42.654Z,3.35
2023-03-29T09:41:24.893Z,2.53
2023-03-29T09:43:57.496Z,2.25
2023-03-29T09:46:32.308Z,2.90
2023-03-29T09:49:03.623Z,3.00
2023-03-29T09:51:36.903Z,3.15
2023-03-29T09:54:10.402Z,2.17
2023-03-29T09:56:43.625Z,2.90
2023-03-29T09:59:15.203Z,4.18
2023-03-29T10:01:49.010Z,12.00
2023-03-29T10:04:21.633Z,2.92
2023-03-29T10:06:55.478Z,4.43
2023-03-29T10:09:27.756Z,4.97
2023-03-29T10:12:04.965Z,2.75
2023-03-29T10:14:38.431Z,2.53
2023-03-29T10:17:17.531Z,4.30
2023-03-29T10:19:53.451Z,3.00
2023-03-29T10:22:27.998Z,4.43
2023-03-29T10:25:00.304Z,9.15
2023-03-29T10:27:37.602Z,1.90
2023-03-29T10:30:15.817Z,4.47
2023-03-29T10:32:46.400Z,3.17
2023-03-29T10:35:27.340Z,2.10
2023-03-29T10:38:00.670Z,8.07
2023-03-29T10:40:33.643Z,5.88
2023-03-29T10:43:17.253Z,2.10
2023-03-29T10:45:51.171Z,2.35
2023-03-29T10:48:22.844Z,2.40
2023-03-29T10:50:54.424Z,1.88
2023-03-29T10:53:28.713Z,2.42
2023-03-29T10:56:15.203Z,2.30
2023-03-29T10:59:14.536Z,2.00
2023-03-29T11:01:54.546Z,2.35
2023-03-29T11:04:34.519Z,2.08
2023-03-29T11:07:25.360Z,1.50
2023-03-29T11:10:03.250Z,2.08
2023-03-29T11:12:40.455Z,2.33
2023-03-29T11:15:30.644Z,2.67
2023-03-29T11:18:18.397Z,2.45
2023-03-29T11:20:51.711Z,4.90
2023-03-29T11:23:35.579Z,2.60
2023-03-29T11:26:15.613Z,6.57
2023-03-29T11:28:53.641Z,3.00
2023-03-29T11:31:39.149Z,1.70
2023-03-29T11:34:30.081Z,1.90
2023-03-29T11:37:06.458Z,2.33
2023-03-29T11:39:47.066Z,2.17
2023-03-29T11:42:21.931Z,2.50
2023-03-29T11:44:58.053Z,1.83
2023-03-29T11:47:35.322Z,1.88
2023-03-29T11:50:13.639Z,1.90
2023-03-29T11:52:51.274Z,2.60
2023-03-29T11:55:26.373Z,1.80
2023-03-29T11:58:01.574Z,1.73
2023-03-29T12:00:38.778Z,2.15
2023-03-29T12:03:16.862Z,1.73
2023-03-29T12:05:51.362Z,2.10
2023-03-29T12:08:27.343Z,2.03
2023-03-29T12:11:07.366Z,1.48
2023-03-29T12:13:43.357Z,1.90
2023-03-29T12:16:19.520Z,1.92
2023-03-29T12:18:55.941Z,1.70
2023-03-29T12:21:28.587Z,1.52
2023-03-29T12:24:02.612Z,1.90
2023-03-29T12:26:49.788Z,2.00
2023-03-29T12:29:36.018Z,1.63
2023-03-29T12:32:24.546Z,2.10
2023-03-29T12:35:08.930Z,1.67
2023-03-29T12:37:48.557Z,3.75
2023-03-29T12:40:21.440Z,1.55
2023-03-29T12:42:55.532Z,2.50
2023-03-29T12:45:36.309Z,1.70
2023-03-29T12:48:07.979Z,2.03
2023-03-29T12:50:50.000Z,2.00
2023-03-29T12:53:25.412Z,1.85
2023-03-29T12:56:12.785Z,1.63
2023-03-29T12:59:11.123Z,1.58
2023-03-29T13:01:43.215Z,1.45
2023-03-29T13:04:20.021Z,1.63
2023-03-29T13:07:07.569Z,1.70
2023-03-29T13:09:50.253Z,1.90
2023-03-29T13:12:27.429Z,1.65
2023-03-29T13:15:01.164Z,1.83
2023-03-29T13:17:45.285Z,1.77
2023-03-29T13:20:33.796Z,2.17
2023-03-29T13:23:24.334Z,8.95
2023-03-29T13:26:13.255Z,7.05
2023-03-29T13:29:03.640Z,5.47
2023-03-29T13:31:39.219Z,3.50
2023-03-29T13:34:28.286Z,12.55
2023-03-29T13:37:09.340Z,2.10
2023-03-29T13:39:53.209Z,1.92
2023-03-29T13:42:28.015Z,1.73
2023-03-29T13:45:17.091Z,2.85
2023-03-29T13:48:02.727Z,1.60
2023-03-29T13:50:42.127Z,1.50
2023-03-29T13:53:18.901Z,1.20
2023-03-29T13:55:56.008Z,1.50
2023-03-29T13:58:37.765Z,1.13
2023-03-29T14:01:14.744Z,1.35
2023-03-29T14:03:48.670Z,1.20
2023-03-29T14:06:25.025Z,1.50
2023-03-29T14:08:56.571Z,1.48
2023-03-29T14:11:32.428Z,1.00
2023-03-29T14:14:08.090Z,1.20
2023-03-29T14:16:40.352Z,1.00
2023-03-29T14:19:17.582Z,1.30
2023-03-29T14:21:48.798Z,1.00
2023-03-29T14:24:24.363Z,1.60
2023-03-29T14:27:00.556Z,1.73
2023-03-29T14:29:34.088Z,1.63
2023-03-29T14:32:14.170Z,1.40
2023-03-29T14:34:44.942Z,1.35
2023-03-29T14:37:16.530Z,1.30
2023-03-29T14:39:46.859Z,1.10
2023-03-29T14:42:23.726Z,1.55
2023-03-29T14:44:54.241Z,1.08
2023-03-29T14:47:29.648Z,1.17
2023-03-29T14:50:02.002Z,1.15
2023-03-29T14:52:34.018Z,1.50
2023-03-29T14:55:05.979Z,1.40
2023-03-29T14:57:39.684Z,1.27
2023-03-29T15:00:31.674Z,1.90
2023-03-29T15:03:04.108Z,1.75
2023-03-29T15:05:39.468Z,1.42
2023-03-29T15:08:12.190Z,1.25
2023-03-29T15:10:45.080Z,1.60
2023-03-29T15:13:24.696Z,1.50
2023-03-29T15:15:59.449Z,1.70
2023-03-29T15:18:35.193Z,1.60
2023-03-29T15:21:06.200Z,1.30
2023-03-29T15:23:42.005Z,1.40
2023-03-29T15:26:16.532Z,1.95
2023-03-29T15:28:55.946Z,1.95
2023-03-29T15:31:29.606Z,1.60
2023-03-29T15:34:10.744Z,1.27
2023-03-29T15:36:43.883Z,2.20
2023-03-29T15:39:16.423Z,2.10
2023-03-29T15:41:48.261Z,2.33
2023-03-29T15:44:25.844Z,1.70
2023-03-29T15:47:00.100Z,3.80
2023-03-29T15:49:30.919Z,3.92
2023-03-29T15:52:01.213Z,2.88
2023-03-29T15:54:33.583Z,2.90
2023-03-29T15:57:06.699Z,3.30
2023-03-29T15:59:39.728Z,2.63
2023-03-29T16:02:16.070Z,1.57
2023-03-29T16:04:46.722Z,1.88
2023-03-29T16:07:19.321Z,2.25
2023-03-29T16:09:49.907Z,1.52
2023-03-29T16:12:20.165Z,1.38
2023-03-29T16:14:55.788Z,1.55
2023-03-29T16:17:26.013Z,2.38
2023-03-29T16:19:57.158Z,3.35
2023-03-29T16:22:30.481Z,2.30
2023-03-29T16:25:00.747Z,2.60
2023-03-29T16:27:31.485Z,2.60
2023-03-29T16:30:04.470Z,2.00
2023-03-29T16:32:34.858Z,3.28
2023-03-29T16:35:05.382Z,2.25
2023-03-29T16:37:35.913Z,2.30
2023-03-29T16:40:08.043Z,2.88
2023-03-29T16:42:38.364Z,3.22
2023-03-29T16:45:15.455Z,3.90
2023-03-29T16:47:46.792Z,3.40
2023-03-29T16:50:19.042Z,2.50
2023-03-29T16:52:51.699Z,1.27
2023-03-29T16:55:22.506Z,1.38
2023-03-29T16:57:53.819Z,1.55
2023-03-29T17:00:27.110Z,1.55
2023-03-29T17:02:57.649Z,1.60
2023-03-29T17:05:31.148Z,1.40
2023-03-29T17:08:05.192Z,1.45
2023-03-29T17:10:36.589Z,1.50
2023-03-29T17:13:07.145Z,1.95
2023-03-29T17:15:40.377Z,1.38
2023-03-29T17:18:10.757Z,1.53
2023-03-29T17:20:42.257Z,1.77
2023-03-29T17:23:13.030Z,1.70
2023-03-29T17:25:43.644Z,1.67
2023-03-29T17:28:14.394Z,1.60
2023-03-29T17:30:47.490Z,1.70
2023-03-29T17:33:20.353Z,1.70
2023-03-29T17:35:52.096Z,1.52
2023-03-29T17:38:22.782Z,1.42
2023-03-29T17:40:56.378Z,1.90
2023-03-29T17:43:26.783Z,1.77
2023-03-29T17:45:59.792Z,1.60
2023-03-29T17:48:33.034Z,1.50
2023-03-29T17:51:03.444Z,1.80
2023-03-29T17:53:33.816Z,1.60
2023-03-29T17:56:04.380Z,1.90
2023-03-29T17:58:34.859Z,1.80
2023-03-29T18:01:12.490Z,1.85
2023-03-29T18:03:43.440Z,1.77
2023-03-29T18:06:13.806Z,2.10
2023-03-29T18:08:44.319Z,2.00
2023-03-29T18:11:19.064Z,2.05
2023-03-29T18:13:53.155Z,2.25
2023-03-29T18:16:26.421Z,1.85
2023-03-29T18:18:56.702Z,1.87
2023-03-29T18:21:28.338Z,2.05
2023-03-29T18:23:58.659Z,2.38
2023-03-29T18:26:28.989Z,2.15
2023-03-29T18:28:59.440Z,2.50
2023-03-29T18:31:33.005Z,2.40
2023-03-29T18:34:03.444Z,2.13
2023-03-29T18:36:34.820Z,2.00
2023-03-29T18:39:06.012Z,2.15
2023-03-29T18:41:38.025Z,1.88
2023-03-29T18:44:08.735Z,2.00
2023-03-29T18:46:53.306Z,2.45
2023-03-29T18:49:25.180Z,2.20
2023-03-29T18:51:58.183Z,2.20
2023-03-29T18:54:31.448Z,2.60
2023-03-29T18:57:04.801Z,4.60
2023-03-29T18:59:36.184Z,5.63
2023-03-29T19:02:09.366Z,4.35
2023-03-29T19:04:43.137Z,4.27
2023-03-29T19:07:13.568Z,4.28
2023-03-29T19:09:44.255Z,4.93
2023-03-29T19:12:14.523Z,4.45
2023-03-29T19:14:44.896Z,4.53
2023-03-29T19:17:20.259Z,12.63
2023-03-29T19:19:53.400Z,9.43
2023-03-29T19:22:23.734Z,15.75
2023-03-29T19:24:55.156Z,16.23
2023-03-29T19:27:25.538Z,10.48
2023-03-29T19:29:55.950Z,12.02
2023-03-29T19:32:28.923Z,12.27
2023-03-29T19:34:59.262Z,10.88
2023-03-29T19:37:32.194Z,12.98
2023-03-29T19:40:02.601Z,15.60
2023-03-29T19:42:32.865Z,13.30
2023-03-29T19:45:04.147Z,17.13
2023-03-29T19:47:37.456Z,17.33
2023-03-29T19:50:08.812Z,16.08
2023-03-29T19:52:39.204Z,16.33
2023-03-29T19:55:11.091Z,15.40
2023-03-29T19:57:42.673Z,15.18
2023-03-29T20:00:14.394Z,14.30
2023-03-29T20:02:49.969Z,12.85
2023-03-29T20:05:21.567Z,11.43
2023-03-29T20:07:51.796Z,10.32
2023-03-29T20:10:22.120Z,9.55
2023-03-29T20:12:52.432Z,8.10
2023-03-29T20:15:25.720Z,8.32
2023-03-29T20:18:00.558Z,8.77
2023-03-29T20:20:32.118Z,9.52
2023-03-29T20:23:05.223Z,8.20
2023-03-29T20:25:36.376Z,8.32
2023-03-29T20:28:06.983Z,9.20
2023-03-29T20:30:38.075Z,8.70
2023-03-29T20:33:11.290Z,8.45
2023-03-29T20:35:41.593Z,8.88
2023-03-29T20:38:11.950Z,7.88
2023-03-29T20:40:43.069Z,8.20
2023-03-29T20:43:18.802Z,8.27
2023-03-29T20:45:53.878Z,7.55
2023-03-29T20:55:12.675Z,6.40
2023-03-29T20:57:43.545Z,6.70
2023-03-29T21:00:15.090Z,6.38
2023-03-29T21:02:45.425Z,5.70
2023-03-29T21:05:16.464Z,6.10
2023-03-29T21:07:48.249Z,6.03
2023-03-29T21:10:23.628Z,5.82
2023-03-29T21:12:54.467Z,5.30
2023-03-29T21:15:27.674Z,5.53
2023-03-29T21:17:58.300Z,5.15
2023-03-29T21:20:28.898Z,4.97
2023-03-29T21:22:59.173Z,6.00
2023-03-29T21:25:32.271Z,5.85
2023-03-29T21:28:02.530Z,5.47
2023-03-29T21:30:32.777Z,5.28
2023-03-29T21:33:03.258Z,4.63
2023-03-29T21:35:34.405Z,5.25
2023-03-29T21:38:04.902Z,4.63
2023-03-29T21:40:39.228Z,5.05
2023-03-29T21:43:09.602Z,4.53
2023-03-29T21:45:39.885Z,4.50
2023-03-29T21:48:10.375Z,5.00
2023-03-29T21:50:41.185Z,4.07
2023-03-29T21:53:11.440Z,4.55
2023-03-29T21:55:44.347Z,5.03
2023-03-29T21:58:14.644Z,4.28
2023-03-29T22:00:45.060Z,4.63
2023-03-29T22:03:16.007Z,4.97
2023-03-29T22:05:46.848Z,4.90
2023-03-29T22:08:20.024Z,4.20
2023-03-29T22:10:55.750Z,5.45
2023-03-29T22:13:29.202Z,4.72
2023-03-29T22:16:01.504Z,4.68
2023-03-29T22:18:44.038Z,6.18
2023-03-29T22:21:17.732Z,5.32
2023-03-29T22:23:50.046Z,5.05
2023-03-29T22:26:27.774Z,5.63
2023-03-29T22:28:58.856Z,5.30
2023-03-29T22:31:32.671Z,5.25
2023-03-29T22:34:03.058Z,4.40
2023-03-29T22:36:34.070Z,4.45
2023-03-29T22:39:04.318Z,4.43
2023-03-29T22:41:37.883Z,4.80
2023-03-29T22:44:08.756Z,4.33
2023-03-29T22:46:39.318Z,3.97
2023-03-29T22:49:09.633Z,3.38
2023-03-29T22:51:39.970Z,4.32
2023-03-29T22:54:10.198Z,4.10
2023-03-29T22:56:43.278Z,4.93
2023-03-29T22:59:13.491Z,4.40
2023-03-29T23:01:43.850Z,4.13
2023-03-29T23:04:14.220Z,4.70
2023-03-29T23:06:44.737Z,4.13
2023-03-29T23:09:16.425Z,4.05
2023-03-29T23:11:49.443Z,3.55
2023-03-29T23:14:19.865Z,4.32
2023-03-29T23:16:50.745Z,3.83
2023-03-29T23:19:21.229Z,4.03
2023-03-29T23:21:52.987Z,4.75
2023-03-29T23:24:23.232Z,3.50
2023-03-29T23:26:56.084Z,4.43
2023-03-29T23:29:26.459Z,4.10
2023-03-29T23:31:56.995Z,3.63
2023-03-29T23:34:27.352Z,3.63
2023-03-29T23:36:57.581Z,3.70
2023-03-29T23:39:28.902Z,3.72
2023-03-29T23:42:01.909Z,3.40
2023-03-29T23:44:32.518Z,4.40
2023-03-29T23:47:02.869Z,3.95
2023-03-29T23:49:33.525Z,3.80
2023-03-29T23:52:03.782Z,3.40
2023-03-29T23:54:34.546Z,4.15
2023-03-29T23:57:07.434Z,3.58
2023-03-29T23:59:38.104Z,3.40
